createdAt,value
2017-08-29T00:02:24.082Z,96.90
2017-08-29T00:04:52.431Z,97.00
2017-08-29T00:07:22.222Z,97.20
2017-08-29T00:09:50.508Z,97.10
2017-08-29T00:12:18.839Z,97.20
2017-08-29T00:17:17.610Z,97.30
2017-08-29T00:19:46.343Z,97.30
2017-08-29T00:27:14.868Z,97.90
2017-08-29T00:29:43.163Z,97.80
2017-08-29T00:32:12.976Z,98.00
2017-08-29T00:34:41.336Z,98.10
2017-08-29T00:37:09.657Z,98.50
2017-08-29T00:39:39.106Z,98.10
2017-08-29T00:42:07.480Z,98.10
2017-08-29T00:44:35.763Z,98.10
2017-08-29T00:47:04.461Z,98.20
2017-08-29T00:49:34.298Z,98.10
2017-08-29T00:52:02.591Z,98.10
2017-08-29T00:54:30.888Z,97.90
2017-08-29T00:56:59.991Z,98.00
2017-08-29T00:59:28.304Z,97.80
2017-08-29T01:01:58.103Z,97.80
2017-08-29T01:04:26.442Z,97.70
2017-08-29T01:06:54.733Z,97.40
2017-08-29T01:09:23.018Z,97.20
2017-08-29T01:11:52.875Z,97.00
2017-08-29T01:14:21.165Z,97.10
2017-08-29T01:16:50.959Z,97.00
2017-08-29T01:19:19.298Z,96.90
2017-08-29T01:21:47.592Z,96.60
2017-08-29T01:24:15.875Z,96.20
2017-08-29T01:26:44.253Z,96.10
2017-08-29T01:29:12.568Z,96.00
2017-08-29T01:31:41.632Z,95.80
2017-08-29T01:34:10.372Z,95.60
2017-08-29T01:36:38.683Z,95.40
2017-08-29T01:41:37.308Z,95.10
2017-08-29T01:44:05.643Z,95.00
2017-08-29T01:46:34.327Z,95.00
2017-08-29T01:49:02.690Z,94.90
2017-08-29T01:51:31.738Z,94.90
2017-08-29T01:54:00.424Z,94.90
2017-08-29T01:56:28.780Z,94.90
2017-08-29T01:58:58.579Z,94.90
2017-08-29T02:01:26.889Z,94.70
2017-08-29T02:03:55.230Z,94.60
2017-08-29T02:06:23.523Z,95.20
2017-08-29T02:08:51.810Z,95.30
2017-08-29T02:11:20.139Z,95.30
2017-08-29T02:13:49.943Z,95.10
2017-08-29T02:16:18.238Z,95.00
2017-08-29T02:18:46.566Z,94.80
2017-08-29T02:21:15.671Z,94.90
2017-08-29T02:23:43.963Z,95.20
2017-08-29T02:28:42.232Z,95.50
2017-08-29T02:31:10.534Z,95.90
2017-08-29T02:33:38.888Z,95.70
2017-08-29T02:36:07.189Z,95.80
2017-08-29T02:38:36.619Z,95.90
2017-08-29T02:41:04.976Z,96.10
2017-08-29T02:43:33.262Z,96.00
2017-08-29T02:46:01.583Z,96.00
2017-08-29T02:48:31.082Z,96.10
2017-08-29T02:51:01.395Z,96.20
2017-08-29T02:56:00.036Z,96.20
2017-08-29T02:58:28.340Z,96.30
2017-08-29T03:00:56.656Z,96.30
2017-08-29T03:05:54.899Z,96.10
2017-08-29T03:08:23.994Z,96.10
2017-08-29T03:10:52.330Z,96.30
2017-08-29T03:13:22.123Z,96.10
2017-08-29T03:15:50.444Z,96.10
2017-08-29T03:18:19.544Z,96.00
2017-08-29T03:20:48.591Z,96.00
2017-08-29T03:23:16.912Z,96.20
2017-08-29T03:28:15.537Z,96.10
2017-08-29T03:30:43.867Z,96.30
2017-08-29T03:33:13.346Z,96.20
2017-08-29T03:35:42.412Z,96.10
2017-08-29T03:38:12.247Z,96.00
2017-08-29T03:40:42.100Z,96.10
2017-08-29T03:48:09.561Z,96.30
2017-08-29T03:50:37.870Z,96.30
2017-08-29T03:53:06.192Z,96.30
2017-08-29T03:55:34.510Z,96.40
2017-08-29T03:58:03.574Z,96.40
2017-08-29T04:00:32.291Z,96.40
2017-08-29T04:03:00.619Z,96.50
2017-08-29T04:05:28.922Z,96.70
2017-08-29T04:07:57.255Z,96.80
2017-08-29T04:10:25.591Z,96.90
2017-08-29T04:12:55.015Z,96.80
2017-08-29T04:15:23.343Z,96.80
2017-08-29T04:17:51.676Z,96.80
2017-08-29T04:20:19.967Z,96.80
2017-08-29T04:22:49.434Z,96.90
2017-08-29T04:25:18.906Z,97.00
2017-08-29T04:27:47.587Z,97.10
2017-08-29T04:30:15.929Z,97.20
2017-08-29T04:32:45.022Z,97.20
2017-08-29T04:35:13.715Z,97.20
2017-08-29T04:37:42.047Z,97.50
2017-08-29T04:40:10.403Z,97.40
2017-08-29T04:42:38.725Z,97.20
2017-08-29T04:45:07.050Z,96.90
2017-08-29T04:47:36.509Z,96.90
2017-08-29T04:50:04.807Z,96.90
2017-08-29T04:52:33.147Z,97.00
2017-08-29T04:55:01.467Z,96.90
2017-08-29T04:57:29.755Z,96.80
2017-08-29T04:59:58.387Z,96.80
2017-08-29T05:02:27.815Z,96.80
2017-08-29T05:04:56.107Z,96.70
2017-08-29T05:07:24.459Z,96.70
2017-08-29T05:09:53.517Z,96.70
2017-08-29T05:12:22.566Z,96.50
2017-08-29T05:14:50.910Z,96.60
2017-08-29T05:17:19.201Z,96.70
2017-08-29T05:19:47.894Z,96.70
2017-08-29T05:22:16.259Z,96.80
2017-08-29T05:24:44.572Z,96.80
2017-08-29T05:27:12.884Z,96.70
2017-08-29T05:29:41.251Z,96.60
2017-08-29T05:32:10.699Z,96.50
2017-08-29T05:34:39.017Z,96.50
2017-08-29T05:37:07.367Z,96.50
2017-08-29T05:39:35.671Z,96.60
2017-08-29T05:42:05.469Z,96.70
2017-08-29T05:47:04.839Z,96.60
2017-08-29T05:49:33.135Z,96.50
2017-08-29T05:52:01.863Z,96.60
2017-08-29T05:54:30.920Z,96.80
2017-08-29T05:56:59.615Z,96.80
2017-08-29T05:59:27.967Z,96.80
2017-08-29T06:04:26.163Z,97.10
2017-08-29T06:06:54.561Z,97.10
2017-08-29T06:09:22.867Z,97.10
2017-08-29T06:11:52.293Z,97.10
2017-08-29T06:14:22.573Z,97.30
2017-08-29T06:16:51.100Z,97.10
2017-08-29T06:19:19.394Z,97.10
2017-08-29T06:21:47.727Z,97.10
2017-08-29T06:24:17.536Z,96.90
2017-08-29T06:26:45.831Z,96.90
2017-08-29T06:31:44.106Z,96.00
2017-08-29T06:34:13.175Z,96.00
2017-08-29T06:36:41.554Z,96.00
2017-08-29T06:39:09.856Z,95.40
2017-08-29T06:41:38.231Z,95.40
2017-08-29T06:44:07.711Z,95.20
2017-08-29T06:46:36.019Z,95.60
2017-08-29T06:49:04.303Z,95.80
2017-08-29T06:51:32.631Z,95.80
2017-08-29T06:54:04.558Z,95.90
2017-08-29T06:56:32.852Z,95.50
2017-08-29T06:59:01.187Z,95.50
2017-08-29T07:01:30.988Z,95.40
2017-08-29T07:03:59.272Z,94.90
2017-08-29T07:06:27.619Z,94.00
2017-08-29T07:08:55.927Z,93.70
2017-08-29T07:11:24.624Z,93.60
2017-08-29T07:13:52.985Z,93.30
2017-08-29T07:16:21.280Z,93.20
2017-08-29T07:23:49.410Z,93.20
2017-08-29T07:26:17.715Z,93.30
2017-08-29T07:28:46.105Z,93.30
2017-08-29T07:31:15.918Z,92.80
2017-08-29T07:33:44.220Z,92.50
2017-08-29T07:36:12.570Z,92.30
2017-08-29T07:38:40.874Z,92.10
2017-08-29T07:43:38.784Z,91.10
2017-08-29T07:46:07.148Z,90.50
2017-08-29T07:48:35.473Z,90.40
2017-08-29T07:51:04.586Z,89.40
2017-08-29T07:56:02.803Z,88.60
2017-08-29T07:58:31.151Z,87.10
2017-08-29T08:01:00.971Z,87.20
2017-08-29T08:03:29.269Z,86.30
2017-08-29T08:05:57.607Z,86.60
2017-08-29T08:08:25.900Z,85.50
2017-08-29T08:10:54.191Z,82.50
2017-08-29T08:13:23.667Z,81.10
2017-08-29T08:15:51.956Z,80.60
2017-08-29T08:18:20.644Z,82.80
2017-08-29T08:20:48.995Z,80.30
2017-08-29T08:23:18.424Z,80.30
2017-08-29T08:25:47.116Z,79.10
2017-08-29T08:30:45.396Z,76.80
2017-08-29T08:33:13.706Z,77.80
2017-08-29T08:35:42.835Z,76.30
2017-08-29T08:38:11.151Z,77.00
2017-08-29T08:40:40.224Z,74.40
2017-08-29T08:43:08.959Z,74.60
2017-08-29T08:45:37.246Z,73.70
2017-08-29T08:48:05.539Z,74.90
2017-08-29T08:50:35.378Z,74.80
2017-08-29T08:55:33.574Z,72.10
2017-08-29T08:58:01.951Z,72.20
2017-08-29T09:00:30.638Z,72.80
2017-08-29T09:02:58.955Z,71.70
2017-08-29T09:05:28.439Z,70.50
2017-08-29T09:07:56.726Z,70.80
2017-08-29T09:10:25.014Z,68.50
2017-08-29T09:12:53.355Z,67.00
2017-08-29T09:15:22.411Z,67.30
2017-08-29T09:17:50.708Z,65.80
2017-08-29T09:20:19.048Z,65.80
2017-08-29T09:22:48.842Z,63.50
2017-08-29T09:25:17.131Z,64.20
2017-08-29T09:27:45.475Z,63.50
2017-08-29T09:30:15.271Z,63.80
2017-08-29T09:32:43.572Z,63.60
2017-08-29T09:35:13.443Z,60.50
2017-08-29T09:40:12.125Z,59.90
2017-08-29T09:42:40.497Z,60.60
2017-08-29T09:45:08.814Z,58.00
2017-08-29T09:47:38.267Z,58.00
2017-08-29T09:50:06.611Z,58.70
2017-08-29T09:52:34.899Z,57.50
2017-08-29T09:55:03.195Z,55.60
2017-08-29T09:57:32.303Z,55.70
2017-08-29T10:00:01.364Z,54.80
2017-08-29T10:02:30.414Z,55.70
2017-08-29T10:07:28.672Z,54.70
2017-08-29T10:12:26.945Z,53.60
2017-08-29T10:14:55.626Z,53.70
2017-08-29T10:17:23.915Z,52.80
2017-08-29T10:19:52.254Z,53.50
2017-08-29T10:22:21.675Z,53.80
2017-08-29T10:24:49.976Z,52.10
2017-08-29T10:27:18.320Z,51.80
2017-08-29T10:29:46.609Z,52.60
2017-08-29T10:32:16.399Z,51.50
2017-08-29T10:34:44.764Z,53.40
2017-08-29T10:39:42.996Z,50.30
2017-08-29T10:42:12.491Z,51.50
2017-08-29T10:44:41.571Z,49.30
2017-08-29T10:49:40.601Z,49.80
2017-08-29T10:52:08.913Z,49.80
2017-08-29T10:54:37.203Z,48.20
2017-08-29T10:59:35.063Z,50.60
2017-08-29T11:02:04.127Z,52.50
2017-08-29T11:04:33.599Z,50.90
2017-08-29T11:07:01.899Z,51.00
2017-08-29T11:09:30.186Z,49.10
2017-08-29T11:11:58.540Z,51.30
2017-08-29T11:14:28.343Z,50.80
2017-08-29T11:16:56.629Z,50.90
2017-08-29T11:19:24.987Z,51.70
2017-08-29T11:21:54.040Z,48.50
2017-08-29T11:24:22.331Z,48.00
2017-08-29T11:26:50.712Z,47.20
2017-08-29T11:29:20.562Z,47.40
2017-08-29T11:31:48.838Z,49.30
2017-08-29T11:36:47.076Z,48.20
2017-08-29T11:39:15.747Z,49.10
2017-08-29T11:41:44.871Z,46.80
2017-08-29T11:44:13.149Z,47.00
2017-08-29T11:46:42.191Z,47.60
2017-08-29T11:49:11.687Z,46.80
2017-08-29T11:51:39.986Z,46.00
2017-08-29T11:54:08.307Z,45.50
2017-08-29T11:56:36.648Z,46.30
2017-08-29T11:59:06.424Z,45.30
2017-08-29T12:01:34.710Z,44.40
2017-08-29T12:04:03.055Z,44.00
2017-08-29T12:06:32.107Z,43.60
2017-08-29T12:09:00.383Z,43.40
2017-08-29T12:11:28.739Z,42.50
2017-08-29T12:13:57.024Z,43.90
2017-08-29T12:16:26.452Z,43.50
2017-08-29T12:18:54.786Z,43.50
2017-08-29T12:21:23.059Z,45.10
2017-08-29T12:23:51.341Z,41.70
2017-08-29T12:26:19.679Z,43.10
2017-08-29T12:28:47.946Z,44.40
2017-08-29T12:31:16.228Z,43.20
2017-08-29T12:33:44.571Z,45.00
2017-08-29T12:36:14.016Z,45.30
2017-08-29T12:38:42.308Z,42.50
2017-08-29T12:41:11.800Z,42.60
2017-08-29T12:43:41.622Z,41.50
2017-08-29T12:46:09.928Z,41.90
2017-08-29T12:51:08.180Z,42.00
2017-08-29T12:56:06.396Z,43.40
2017-08-29T12:58:34.688Z,43.70
2017-08-29T13:03:39.104Z,43.30
2017-08-29T13:06:07.388Z,41.60
2017-08-29T13:08:37.176Z,41.00
2017-08-29T13:11:05.508Z,40.40
2017-08-29T13:13:33.783Z,40.70
2017-08-29T13:16:02.059Z,41.50
2017-08-29T13:18:31.938Z,41.80
2017-08-29T13:23:30.502Z,41.90
2017-08-29T13:25:59.599Z,42.60
2017-08-29T13:28:27.892Z,43.20
2017-08-29T13:30:56.932Z,41.90
2017-08-29T13:33:26.041Z,42.30
2017-08-29T13:38:24.470Z,41.70
2017-08-29T13:40:52.799Z,42.60
2017-08-29T13:43:21.083Z,43.50
2017-08-29T13:45:49.355Z,43.00
2017-08-29T13:48:18.851Z,41.70
2017-08-29T13:53:17.460Z,41.70
2017-08-29T13:55:45.818Z,42.30
2017-08-29T13:58:14.109Z,42.10
2017-08-29T14:05:42.671Z,43.00
2017-08-29T14:08:12.480Z,43.40
2017-08-29T14:10:41.592Z,45.80
2017-08-29T14:15:39.786Z,46.50
2017-08-29T14:20:38.046Z,46.00
2017-08-29T14:25:36.287Z,44.10
2017-08-29T14:28:04.583Z,45.00
2017-08-29T14:30:32.868Z,45.00
2017-08-29T14:33:01.198Z,45.40
2017-08-29T14:35:30.978Z,46.70
2017-08-29T14:37:59.280Z,45.00
2017-08-29T14:40:27.631Z,45.00
2017-08-29T14:42:55.915Z,44.50
2017-08-29T14:52:59.614Z,44.30
2017-08-29T14:55:27.947Z,45.10
2017-08-29T14:57:56.232Z,45.20
2017-08-29T15:00:24.515Z,45.20
2017-08-29T15:02:53.981Z,45.40
2017-08-29T15:07:52.155Z,46.50
2017-08-29T15:12:51.508Z,47.20
2017-08-29T15:15:20.931Z,45.60
2017-08-29T15:22:49.787Z,48.10
2017-08-29T15:25:18.883Z,48.60
2017-08-29T15:27:47.939Z,46.80
2017-08-29T15:30:16.214Z,46.40
2017-08-29T15:32:45.310Z,46.20
2017-08-29T15:35:13.600Z,45.90
2017-08-29T15:37:41.904Z,46.10
2017-08-29T15:40:10.247Z,46.90
2017-08-29T15:42:39.696Z,48.20
2017-08-29T15:45:07.996Z,48.40
2017-08-29T15:47:36.328Z,48.20
2017-08-29T15:50:04.607Z,47.80
2017-08-29T15:52:32.899Z,47.90
2017-08-29T15:55:01.234Z,48.30
2017-08-29T15:57:31.007Z,47.80
2017-08-29T15:59:59.290Z,47.70
2017-08-29T16:02:27.615Z,47.90
2017-08-29T16:04:56.660Z,46.60
2017-08-29T16:07:26.440Z,48.00
2017-08-29T16:09:55.960Z,50.30
2017-08-29T16:12:25.007Z,48.90
2017-08-29T16:19:53.499Z,47.70
2017-08-29T16:22:22.175Z,47.80
2017-08-29T16:24:50.500Z,47.20
2017-08-29T16:27:19.911Z,47.60
2017-08-29T16:29:48.187Z,48.40
2017-08-29T16:32:16.530Z,48.00
2017-08-29T16:34:46.319Z,47.70
2017-08-29T16:37:14.615Z,49.80
2017-08-29T16:39:42.967Z,50.20
2017-08-29T16:42:11.256Z,50.00
2017-08-29T16:44:39.553Z,48.70
2017-08-29T16:47:09.534Z,48.70
2017-08-29T16:49:37.811Z,48.60
2017-08-29T16:52:06.851Z,49.80
2017-08-29T16:54:35.186Z,50.10
2017-08-29T16:57:04.975Z,49.20
2017-08-29T16:59:33.652Z,50.20
2017-08-29T17:02:03.484Z,51.30
2017-08-29T17:04:31.762Z,51.40
2017-08-29T17:07:00.044Z,50.50
2017-08-29T17:09:28.405Z,51.00
2017-08-29T17:11:56.682Z,51.40
2017-08-29T17:14:26.112Z,51.10
2017-08-29T17:16:54.430Z,51.50
2017-08-29T17:19:22.715Z,52.10
2017-08-29T17:21:50.991Z,52.20
2017-08-29T17:24:19.322Z,52.30
2017-08-29T17:26:49.114Z,52.10
2017-08-29T17:29:17.387Z,53.70
2017-08-29T17:31:45.724Z,55.10
2017-08-29T17:34:14.783Z,55.40
2017-08-29T17:36:43.076Z,56.00
2017-08-29T17:39:12.924Z,57.10
2017-08-29T17:41:41.239Z,55.40
2017-08-29T17:44:09.519Z,55.70
2017-08-29T17:49:08.175Z,56.00
2017-08-29T17:51:37.596Z,56.00
2017-08-29T17:54:05.919Z,56.10
2017-08-29T17:56:34.200Z,56.40
2017-08-29T17:59:02.499Z,56.10
2017-08-29T18:01:30.819Z,56.30
2017-08-29T18:03:59.110Z,56.50
2017-08-29T18:06:28.899Z,56.60
2017-08-29T18:08:57.235Z,56.80
2017-08-29T18:13:55.432Z,57.40
2017-08-29T18:18:54.809Z,58.10
2017-08-29T18:21:23.090Z,58.10
2017-08-29T18:23:51.423Z,58.40
2017-08-29T18:26:21.206Z,58.60
2017-08-29T18:31:19.448Z,59.10
2017-08-29T18:33:47.715Z,59.30
2017-08-29T18:36:16.436Z,59.60
2017-08-29T18:38:44.770Z,59.70
2017-08-29T18:41:14.204Z,59.90
2017-08-29T18:43:42.519Z,60.50
2017-08-29T18:46:10.831Z,60.70
2017-08-29T18:48:39.115Z,60.90
2017-08-29T18:51:08.196Z,61.10
2017-08-29T18:53:36.503Z,61.90
2017-08-29T18:58:34.727Z,61.80
2017-08-29T19:01:03.816Z,63.00
2017-08-29T19:03:32.870Z,62.90
2017-08-29T19:08:31.301Z,63.10
2017-08-29T19:10:59.594Z,63.40
2017-08-29T19:13:27.888Z,63.60
2017-08-29T19:15:56.274Z,64.00
2017-08-29T19:18:25.737Z,64.00
2017-08-29T19:20:54.047Z,64.50
2017-08-29T19:23:22.391Z,64.30
2017-08-29T19:25:50.791Z,64.70
2017-08-29T19:28:20.582Z,65.00
2017-08-29T19:30:48.927Z,65.10
2017-08-29T19:33:17.216Z,65.00
2017-08-29T19:40:44.660Z,64.80
2017-08-29T19:43:12.969Z,65.00
2017-08-29T19:45:41.310Z,65.10
2017-08-29T19:48:10.732Z,65.10
2017-08-29T19:53:39.181Z,65.40
2017-08-29T19:56:07.459Z,65.20
2017-08-29T19:58:35.791Z,65.60
2017-08-29T20:01:04.463Z,66.10
2017-08-29T20:03:34.247Z,66.10
2017-08-29T20:08:32.079Z,65.80
2017-08-29T20:11:00.758Z,66.00
2017-08-29T20:15:59.014Z,65.60
2017-08-29T20:18:28.087Z,65.80
2017-08-29T20:23:26.341Z,65.80
2017-08-29T20:28:24.600Z,65.70
2017-08-29T20:30:52.879Z,65.80
2017-08-29T20:33:21.163Z,66.00
2017-08-29T20:35:49.891Z,66.10
2017-08-29T20:38:18.934Z,66.10
2017-08-29T20:40:47.218Z,65.90
2017-08-29T20:43:15.540Z,66.00
2017-08-29T20:45:43.838Z,66.00
2017-08-29T20:48:12.125Z,65.90
2017-08-29T20:50:40.459Z,65.90
2017-08-29T20:53:09.875Z,66.10
2017-08-29T20:55:38.551Z,66.00
2017-08-29T20:58:06.934Z,66.00
2017-08-29T21:00:35.979Z,66.10
2017-08-29T21:05:34.599Z,66.00
2017-08-29T21:08:04.392Z,67.00
2017-08-29T21:10:32.664Z,66.60
2017-08-29T21:15:31.270Z,67.30
2017-08-29T21:17:59.575Z,67.40
2017-08-29T21:20:28.002Z,67.10
2017-08-29T21:22:57.064Z,67.30
2017-08-29T21:25:25.367Z,68.00
2017-08-29T21:27:53.729Z,67.90
2017-08-29T21:30:22.018Z,68.50
2017-08-29T21:35:20.267Z,69.10
2017-08-29T21:37:48.560Z,69.20
2017-08-29T21:40:16.851Z,69.50
2017-08-29T21:42:45.955Z,69.80
2017-08-29T21:45:14.257Z,69.70
2017-08-29T21:47:42.558Z,70.10
2017-08-29T21:52:42.415Z,70.60
2017-08-29T21:55:10.711Z,71.00
2017-08-29T21:57:39.071Z,71.20
2017-08-29T22:00:07.352Z,71.60
2017-08-29T22:02:36.787Z,71.70
2017-08-29T22:05:05.140Z,71.60
2017-08-29T22:10:03.715Z,71.80
2017-08-29T22:12:32.076Z,71.70
2017-08-29T22:15:01.870Z,72.40
2017-08-29T22:17:30.554Z,72.60
2017-08-29T22:20:00.415Z,72.60
2017-08-29T22:22:28.755Z,72.40
2017-08-29T22:24:57.838Z,72.60
2017-08-29T22:27:26.206Z,72.70
2017-08-29T22:34:54.000Z,73.10
2017-08-29T22:37:23.063Z,73.60
2017-08-29T22:39:51.352Z,72.90
2017-08-29T22:42:20.831Z,73.50
2017-08-29T22:44:49.123Z,73.30
2017-08-29T22:47:17.411Z,73.40
2017-08-29T22:49:45.751Z,73.50
2017-08-29T22:52:15.547Z,73.70
2017-08-29T22:54:43.843Z,73.30
2017-08-29T23:02:12.399Z,73.90
2017-08-29T23:04:40.754Z,73.70
2017-08-29T23:07:09.030Z,73.60
2017-08-29T23:12:08.016Z,73.40
2017-08-29T23:14:36.303Z,73.30
2017-08-29T23:19:35.126Z,73.80
2017-08-29T23:22:04.556Z,73.80
2017-08-29T23:24:32.834Z,73.30
2017-08-29T23:27:02.687Z,73.70
2017-08-29T23:29:30.973Z,73.70
2017-08-29T23:31:59.271Z,73.20
2017-08-29T23:34:27.612Z,73.90
2017-08-29T23:39:25.859Z,73.70
2017-08-29T23:46:53.682Z,73.90
2017-08-29T23:49:22.786Z,73.60
2017-08-29T23:51:51.839Z,73.70
2017-08-29T23:54:20.123Z,73.60
2017-08-29T23:56:48.475Z,74.00
2017-08-29T23:59:16.763Z,73.80
